Time;durP1;ratioP1;P1;durP2;ratioP2;P2;SDS_P1;SDS_P2;PMS_P1;PMS_P2;Temp;Humidity;BMP_temperature;BMP_pressure;BME280_temperature;BME280_humidity;BME280_pressure;Samples;Min_cycle;Max_cycle;Signal;HPM_P1;HPM_P2
2021/01/14 00:00:47;;;;;;;11.87;2.63;;;9.30;99.90;;;;;;4843293;29;20226;-87
2021/01/14 00:03:18;;;;;;;13.20;2.70;;;9.30;99.90;;;;;;4843598;29;20246;-86
2021/01/14 00:05:58;;;;;;;11.43;2.70;;;9.30;99.90;;;;;;4849411;29;20242;-84
2021/01/14 00:08:27;;;;;;;12.50;2.90;;;9.30;99.90;;;;;;4848807;29;20767;-85
2021/01/14 00:10:58;;;;;;;8.60;2.50;;;9.30;99.90;;;;;;4854607;29;20524;-86
2021/01/14 00:13:27;;;;;;;16.27;2.60;;;9.10;99.90;;;;;;4860656;29;20239;-86
2021/01/14 00:15:57;;;;;;;12.67;2.13;;;9.00;99.90;;;;;;4856360;29;20227;-86
2021/01/14 00:18:27;;;;;;;12.30;2.63;;;8.80;99.90;;;;;;4851174;29;20246;-85
2021/01/14 00:20:58;;;;;;;12.27;3.30;;;8.70;99.90;;;;;;4843703;29;20306;-86
2021/01/14 00:23:28;;;;;;;9.10;2.20;;;8.60;99.90;;;;;;4859916;29;20211;-85
2021/01/14 00:25:58;;;;;;;12.37;2.57;;;8.40;99.90;;;;;;4862613;29;20211;-85
2021/01/14 00:28:28;;;;;;;9.43;2.63;;;8.20;99.90;;;;;;4871722;29;21013;-85
2021/01/14 00:30:57;;;;;;;10.30;2.73;;;8.10;99.90;;;;;;4863553;29;20713;-85
2021/01/14 00:33:28;;;;;;;12.00;3.27;;;8.00;99.90;;;;;;4846190;29;20241;-85
2021/01/14 00:36:00;;;;;;;14.23;2.70;;;8.00;99.90;;;;;;4854566;29;20211;-85
2021/01/14 00:38:28;;;;;;;12.53;2.63;;;8.10;99.90;;;;;;4846631;29;20211;-85
2021/01/14 00:40:59;;;;;;;13.50;2.90;;;8.10;99.90;;;;;;4864922;29;20209;-86
2021/01/14 00:43:31;;;;;;;10.87;2.10;;;8.10;99.90;;;;;;4850967;29;20210;-85
2021/01/14 00:46:01;;;;;;;8.37;2.30;;;8.20;99.90;;;;;;4858632;29;20222;-85
2021/01/14 00:48:31;;;;;;;8.23;2.40;;;8.20;99.90;;;;;;4860859;29;20220;-86
2021/01/14 00:51:02;;;;;;;11.83;3.07;;;8.20;99.90;;;;;;4873969;29;20213;-85
2021/01/14 00:53:33;;;;;;;10.37;2.23;;;8.20;99.90;;;;;;4876622;29;20220;-86
2021/01/14 00:56:02;;;;;;;6.27;1.93;;;8.20;99.90;;;;;;4866104;29;20202;-86
2021/01/14 00:58:33;;;;;;;8.93;2.53;;;8.20;99.90;;;;;;4852761;29;20254;-85
2021/01/14 01:01:03;;;;;;;11.17;1.80;;;8.10;99.90;;;;;;4869600;29;20222;-86
2021/01/14 01:03:34;;;;;;;12.50;2.53;;;8.10;99.90;;;;;;4856653;29;20272;-85
2021/01/14 01:06:06;;;;;;;7.07;1.90;;;8.10;99.90;;;;;;4855053;29;20211;-85
2021/01/14 01:08:36;;;;;;;11.30;2.10;;;8.10;99.90;;;;;;4856543;29;20238;-84
2021/01/14 01:11:05;;;;;;;10.13;2.37;;;8.10;99.90;;;;;;4849380;29;20332;-85
2021/01/14 01:13:35;;;;;;;12.03;1.90;;;8.00;99.90;;;;;;4844376;29;20749;-85
2021/01/14 01:16:05;;;;;;;10.53;1.87;;;8.00;99.90;;;;;;4852769;29;20313;-84
2021/01/14 01:18:36;;;;;;;9.27;2.03;;;7.90;99.90;;;;;;4843063;29;20216;-85
2021/01/14 01:21:08;;;;;;;8.67;2.00;;;7.80;99.90;;;;;;4845261;29;20219;-86
2021/01/14 01:23:39;;;;;;;22.50;3.00;;;7.80;99.90;;;;;;4850675;29;20278;-85
2021/01/14 01:26:08;;;;;;;10.33;1.77;;;7.70;99.90;;;;;;4864848;29;20215;-85
2021/01/14 01:28:39;;;;;;;9.13;1.97;;;7.70;99.90;;;;;;4857763;29;20226;-85
2021/01/14 01:31:10;;;;;;;7.20;1.37;;;7.60;99.90;;;;;;4853471;29;20217;-84
2021/01/14 01:33:40;;;;;;;10.93;2.30;;;7.60;99.90;;;;;;4850947;29;20252;-84
2021/01/14 01:36:13;;;;;;;13.23;1.93;;;7.60;99.90;;;;;;4847581;29;20272;-85
2021/01/14 01:38:44;;;;;;;7.47;2.43;;;7.50;99.90;;;;;;4841907;29;20240;-85
2021/01/14 01:41:14;;;;;;;6.63;2.40;;;7.40;99.90;;;;;;4849505;29;20203;-84
2021/01/14 01:43:44;;;;;;;8.57;2.07;;;7.30;99.90;;;;;;4862766;29;20211;-85
2021/01/14 01:46:26;;;;;;;10.20;2.30;;;7.20;99.90;;;;;;4862708;29;20242;-86
2021/01/14 01:48:57;;;;;;;7.67;2.37;;;7.20;99.90;;;;;;4844864;29;20231;-86
2021/01/14 01:51:35;;;;;;;13.77;3.53;;;7.10;99.90;;;;;;4845393;29;20215;-86
2021/01/14 01:54:05;;;;;;;10.93;3.20;;;7.10;99.90;;;;;;4859355;29;20223;-85
2021/01/14 01:56:36;;;;;;;10.80;3.73;;;7.10;99.90;;;;;;4862846;29;20728;-86
2021/01/14 01:59:08;;;;;;;12.47;2.80;;;7.10;99.90;;;;;;4863099;29;20207;-85
2021/01/14 02:01:39;;;;;;;9.83;2.67;;;7.10;99.90;;;;;;4843460;29;20627;-86
2021/01/14 02:04:09;;;;;;;8.27;2.30;;;7.10;99.90;;;;;;4845730;29;20239;-90
2021/01/14 02:06:47;;;;;;;14.10;3.07;;;7.20;99.90;;;;;;4859238;29;20215;-89
2021/01/14 02:09:19;;;;;;;12.23;3.23;;;7.20;99.90;;;;;;4851539;29;20257;-88
2021/01/14 02:12:00;;;;;;;12.50;2.70;;;7.20;99.90;;;;;;4850574;29;20209;-88
2021/01/14 02:14:34;;;;;;;10.67;3.03;;;7.10;99.90;;;;;;4848997;29;20239;-89
2021/01/14 02:17:05;;;;;;;9.83;2.17;;;7.10;99.90;;;;;;4860673;29;20234;-90
2021/01/14 02:19:41;;;;;;;8.77;2.47;;;7.10;99.90;;;;;;4854240;29;20262;-88
2021/01/14 02:22:17;;;;;;;8.63;2.50;;;7.00;99.90;;;;;;4855630;29;20644;-88
2021/01/14 02:24:56;;;;;;;10.13;2.80;;;7.00;99.90;;;;;;4848786;29;20231;-90
2021/01/14 02:27:45;;;;;;;9.63;2.40;;;7.00;99.90;;;;;;4856264;29;20302;-90
2021/01/14 02:36:51;;;;;;;12.70;3.27;;;6.90;99.90;;;;;;4861145;29;20222;-87
2021/01/14 02:39:40;;;;;;;11.70;3.67;;;6.70;99.90;;;;;;4864229;29;20230;-90
2021/01/14 02:49:16;;;;;;;8.90;2.70;;;6.40;99.90;;;;;;4861462;29;20246;-92
2021/01/14 02:52:06;;;;;;;10.03;3.20;;;6.20;99.90;;;;;;4868572;29;20228;-93
2021/01/14 02:58:02;;;;;;;11.20;3.17;;;6.00;99.90;;;;;;4838663;29;20224;-87
2021/01/14 03:00:37;;;;;;;8.57;2.23;;;6.00;99.90;;;;;;4859769;29;20301;-89
2021/01/14 03:03:09;;;;;;;9.70;2.70;;;5.90;99.90;;;;;;4850381;29;20867;-90
2021/01/14 03:05:41;;;;;;;10.73;2.60;;;5.80;99.90;;;;;;4853815;29;20334;-90
2021/01/14 03:08:12;;;;;;;9.40;2.60;;;5.70;99.90;;;;;;4850722;29;20728;-89
2021/01/14 03:10:44;;;;;;;15.27;3.00;;;5.70;99.90;;;;;;4861889;29;20218;-87
2021/01/14 03:13:15;;;;;;;11.67;3.03;;;5.60;99.90;;;;;;4870493;29;20226;-89
2021/01/14 03:15:45;;;;;;;10.83;2.93;;;5.60;99.90;;;;;;4867414;29;20506;-89
2021/01/14 03:18:16;;;;;;;10.70;3.30;;;5.60;99.90;;;;;;4866185;29;20217;-89
2021/01/14 03:20:46;;;;;;;10.37;2.97;;;5.50;99.90;;;;;;4863004;29;20218;-89
2021/01/14 03:23:20;;;;;;;12.63;3.60;;;5.40;99.90;;;;;;4519586;29;10000580;-89
2021/01/14 03:25:50;;;;;;;7.63;3.23;;;5.40;99.90;;;;;;4847422;29;20241;-89
2021/01/14 03:28:20;;;;;;;6.47;2.97;;;5.40;99.90;;;;;;4849356;29;20215;-90
2021/01/14 03:30:53;;;;;;;11.70;3.70;;;5.30;99.90;;;;;;4858061;29;20251;-89
2021/01/14 03:33:24;;;;;;;14.83;5.03;;;5.30;99.90;;;;;;4857716;29;20205;-89
2021/01/14 03:35:58;;;;;;;14.63;4.50;;;5.30;99.90;;;;;;4860064;29;20291;-90
2021/01/14 03:38:29;;;;;;;11.53;5.53;;;5.20;99.90;;;;;;4866090;29;20211;-88
2021/01/14 03:41:00;;;;;;;11.93;4.73;;;5.10;99.90;;;;;;4866895;29;20210;-89
2021/01/14 03:43:31;;;;;;;15.17;4.00;;;5.10;99.90;;;;;;4864123;29;20225;-89
2021/01/14 03:46:11;;;;;;;13.60;4.90;;;5.00;99.90;;;;;;4861109;29;20236;-91
2021/01/14 03:48:45;;;;;;;10.47;3.93;;;5.00;99.90;;;;;;4859044;29;20207;-90
2021/01/14 03:51:20;;;;;;;13.17;4.10;;;5.00;99.90;;;;;;4849687;29;20223;-90
2021/01/14 03:53:51;;;;;;;11.03;4.50;;;4.90;99.90;;;;;;4853446;29;20272;-90
2021/01/14 03:56:22;;;;;;;12.77;3.77;;;4.90;99.90;;;;;;4844423;29;20265;-89
2021/01/14 03:58:52;;;;;;;12.47;4.20;;;4.90;99.90;;;;;;4844383;29;20239;-88
2021/01/14 04:01:23;;;;;;;9.20;4.87;;;4.90;99.90;;;;;;4848241;29;20215;-89
2021/01/14 04:03:56;;;;;;;14.33;4.50;;;4.80;99.90;;;;;;4852224;29;20231;-89
2021/01/14 04:06:35;;;;;;;11.17;4.50;;;4.80;99.90;;;;;;4850447;29;20211;-88
2021/01/14 04:09:09;;;;;;;13.63;4.83;;;4.80;99.90;;;;;;4850170;29;20215;-89
2021/01/14 04:11:40;;;;;;;12.13;4.80;;;4.70;99.90;;;;;;4850488;29;22086;-89
2021/01/14 04:14:13;;;;;;;17.03;7.90;;;4.70;99.90;;;;;;4849725;29;20268;-88
2021/01/14 04:16:46;;;;;;;16.07;7.17;;;4.70;99.90;;;;;;4860059;29;20591;-89
2021/01/14 04:19:20;;;;;;;11.60;6.03;;;4.70;99.90;;;;;;4867654;29;20210;-89
2021/01/14 04:21:56;;;;;;;16.63;6.43;;;4.60;99.90;;;;;;4851113;29;20264;-90
2021/01/14 04:24:36;;;;;;;14.13;6.80;;;4.60;99.90;;;;;;4847901;29;20243;-89
2021/01/14 04:27:07;;;;;;;16.60;6.83;;;4.60;99.90;;;;;;4852981;29;20211;-89
2021/01/14 04:29:38;;;;;;;17.00;5.43;;;4.60;99.90;;;;;;4856667;29;20215;-89
2021/01/14 04:32:10;;;;;;;9.03;4.83;;;4.60;99.90;;;;;;4863004;29;20283;-89
2021/01/14 04:34:41;;;;;;;13.37;4.57;;;4.50;99.90;;;;;;4851162;29;20692;-88
2021/01/14 04:37:13;;;;;;;13.13;4.30;;;4.50;99.90;;;;;;4847181;29;20234;-90
2021/01/14 04:39:43;;;;;;;12.43;4.47;;;4.50;99.90;;;;;;4846680;29;20288;-89
2021/01/14 04:42:19;;;;;;;13.30;4.40;;;4.50;99.90;;;;;;4848873;29;20203;-94
2021/01/14 04:44:50;;;;;;;9.93;3.50;;;4.50;99.90;;;;;;4851906;29;20246;-94
2021/01/14 04:47:28;;;;;;;9.63;3.77;;;4.50;99.90;;;;;;4874407;29;20225;-96
2021/01/14 04:50:05;;;;;;;11.10;3.53;;;4.50;99.90;;;;;;4869616;29;20188;-91
2021/01/14 04:52:44;;;;;;;13.13;4.27;;;4.40;99.90;;;;;;4877551;29;20221;-92
2021/01/14 05:19:33;;;;;;;10.40;4.77;;;4.20;99.90;;;;;;4868379;29;20199;-94
2021/01/14 05:37:04;;;;;;;16.53;6.47;;;4.00;99.90;;;;;;4884256;29;20259;-92
2021/01/14 05:39:52;;;;;;;11.27;5.30;;;4.00;99.90;;;;;;4883570;29;20256;-91
2021/01/14 05:42:34;;;;;;;13.63;5.73;;;3.90;99.90;;;;;;4880914;29;20211;-94
2021/01/14 05:45:33;;;;;;;11.53;5.00;;;3.90;99.90;;;;;;4873349;29;20235;-96
2021/01/14 06:01:04;;;;;;;13.20;5.00;;;3.80;99.90;;;;;;4876272;29;20222;-96
2021/01/14 06:10:12;;;;;;;13.13;5.53;;;3.80;99.90;;;;;;4875850;29;20228;-91
2021/01/14 06:12:51;;;;;;;10.90;6.20;;;3.80;99.90;;;;;;4868915;29;20249;-91
2021/01/14 06:37:58;;;;;;;18.53;9.13;;;4.10;99.90;;;;;;4851148;29;20312;-94
2021/01/14 06:40:31;;;;;;;24.20;12.50;;;4.10;99.90;;;;;;4845166;29;20227;-88
2021/01/14 06:43:15;;;;;;;46.87;21.23;;;4.10;99.90;;;;;;4841952;29;20216;-89
2021/01/14 06:45:56;;;;;;;42.30;19.57;;;4.10;99.90;;;;;;4856001;29;20235;-88
2021/01/14 06:51:25;;;;;;;13.30;5.83;;;4.10;99.90;;;;;;4832895;29;20221;-88
2021/01/14 06:54:11;;;;;;;10.77;4.90;;;4.20;99.90;;;;;;4832810;29;20225;-88
2021/01/14 06:56:55;;;;;;;10.97;5.37;;;4.20;99.90;;;;;;4824470;29;20216;-89
2021/01/14 06:59:27;;;;;;;15.17;5.60;;;4.20;99.90;;;;;;4825406;29;20242;-89
2021/01/14 07:02:46;;;;;;;13.77;5.43;;;4.20;99.90;;;;;;4826524;29;20204;-88
2021/01/14 07:08:35;;;;;;;9.30;5.20;;;4.20;99.90;;;;;;4827743;29;20261;-89
2021/01/14 07:11:23;;;;;;;17.10;9.07;;;4.30;99.90;;;;;;4852429;29;20210;-89
2021/01/14 07:13:55;;;;;;;22.73;8.37;;;4.30;99.90;;;;;;4819283;29;20213;-88
2021/01/14 07:16:26;;;;;;;14.30;6.90;;;4.30;99.90;;;;;;4824195;29;20205;-89
2021/01/14 07:18:58;;;;;;;19.93;7.37;;;4.30;99.90;;;;;;4828132;29;20224;-89
2021/01/14 07:21:36;;;;;;;14.00;6.40;;;4.30;99.90;;;;;;4829764;29;20209;-89
2021/01/14 07:24:22;;;;;;;11.67;5.70;;;4.40;99.90;;;;;;4820530;29;20204;-88
2021/01/14 07:26:58;;;;;;;12.63;6.53;;;4.40;99.90;;;;;;4826688;29;20208;-88
2021/01/14 07:29:33;;;;;;;11.63;5.60;;;4.40;99.90;;;;;;4826876;29;20586;-89
2021/01/14 07:32:05;;;;;;;13.77;6.07;;;4.40;99.90;;;;;;4834522;29;20213;-90
2021/01/14 07:34:37;;;;;;;18.93;7.20;;;4.40;99.90;;;;;;4836540;29;20212;-90
2021/01/14 07:37:10;;;;;;;17.33;7.20;;;4.40;99.90;;;;;;4830645;29;20265;-89
2021/01/14 07:39:55;;;;;;;14.37;7.77;;;4.40;99.90;;;;;;4829526;29;20682;-89
2021/01/14 07:42:30;;;;;;;23.43;13.67;;;4.40;99.90;;;;;;4831202;29;20262;-89
2021/01/14 07:45:03;;;;;;;21.50;12.60;;;4.50;99.90;;;;;;4836236;29;20231;-89
2021/01/14 07:47:36;;;;;;;20.23;11.80;;;4.50;99.90;;;;;;4840055;29;20215;-89
2021/01/14 07:50:21;;;;;;;17.23;9.00;;;4.50;99.90;;;;;;4842734;29;20239;-89
2021/01/14 07:52:55;;;;;;;17.97;9.57;;;4.50;99.90;;;;;;4829050;29;20239;-88
2021/01/14 07:55:28;;;;;;;13.73;8.70;;;4.50;99.90;;;;;;4835051;29;20184;-89
2021/01/14 07:58:11;;;;;;;14.80;7.87;;;4.50;99.90;;;;;;4838461;29;20188;-88
2021/01/14 08:00:42;;;;;;;11.67;5.67;;;4.40;99.90;;;;;;4830353;29;20212;-89
2021/01/14 08:03:14;;;;;;;12.23;5.90;;;4.40;99.90;;;;;;4828052;29;20216;-88
2021/01/14 08:05:56;;;;;;;12.27;6.37;;;4.40;99.90;;;;;;4826012;29;20234;-89
2021/01/14 08:11:33;;;;;;;14.47;5.83;;;4.20;99.90;;;;;;4830051;29;20221;-88
2021/01/14 08:14:13;;;;;;;14.93;5.90;;;4.20;99.90;;;;;;4828257;29;20212;-89
2021/01/14 08:16:48;;;;;;;15.80;5.33;;;4.10;99.90;;;;;;4837270;29;20208;-89
2021/01/14 08:19:31;;;;;;;9.33;5.13;;;4.10;99.90;;;;;;4826529;29;20250;-88
2021/01/14 08:22:08;;;;;;;10.03;5.27;;;4.00;99.90;;;;;;4827937;29;20208;-88
2021/01/14 08:24:45;;;;;;;11.33;5.27;;;3.90;99.90;;;;;;4832166;29;20219;-89
2021/01/14 08:27:28;;;;;;;11.37;4.90;;;3.90;99.90;;;;;;4827250;29;20205;-89
2021/01/14 08:30:08;;;;;;;14.03;5.07;;;3.90;99.90;;;;;;4831535;29;20236;-88
2021/01/14 08:32:41;;;;;;;8.53;4.80;;;3.90;99.90;;;;;;4826986;29;20209;-90
2021/01/14 08:35:34;;;;;;;14.13;4.70;;;3.90;99.90;;;;;;4829085;29;20228;-90
2021/01/14 08:38:14;;;;;;;14.10;4.63;;;3.90;99.90;;;;;;4878894;23;20241;-89
2021/01/14 08:40:46;;;;;;;12.77;4.47;;;3.90;99.90;;;;;;4859565;29;20207;-90
2021/01/14 08:43:18;;;;;;;13.13;4.07;;;3.80;99.90;;;;;;4846549;29;20207;-88
2021/01/14 08:45:51;;;;;;;10.97;3.97;;;3.80;99.90;;;;;;4857824;29;20281;-89
2021/01/14 08:48:25;;;;;;;12.63;4.10;;;3.80;99.90;;;;;;4863937;29;20291;-89
2021/01/14 08:51:05;;;;;;;10.90;3.80;;;3.70;99.90;;;;;;4858419;29;20246;-88
2021/01/14 08:53:37;;;;;;;13.30;3.73;;;3.70;99.90;;;;;;4855819;29;20307;-89
2021/01/14 08:56:10;;;;;;;11.33;3.97;;;3.70;99.90;;;;;;4858091;29;20227;-88
2021/01/14 08:58:43;;;;;;;12.97;4.03;;;3.60;99.90;;;;;;4856994;29;20212;-87
2021/01/14 09:01:20;;;;;;;8.83;3.57;;;3.60;99.90;;;;;;4857052;29;20698;-87
2021/01/14 09:03:53;;;;;;;10.27;3.23;;;3.50;99.90;;;;;;4853803;29;20260;-88
2021/01/14 09:06:32;;;;;;;8.13;3.30;;;3.50;99.90;;;;;;4857234;29;20337;-88
2021/01/14 09:09:05;;;;;;;8.20;3.47;;;3.50;99.90;;;;;;4850261;29;20638;-88
2021/01/14 09:11:37;;;;;;;9.20;3.43;;;3.50;99.90;;;;;;4858171;29;20281;-88
2021/01/14 09:14:09;;;;;;;7.67;2.87;;;3.40;99.90;;;;;;4856631;29;20241;-89
2021/01/14 09:16:43;;;;;;;6.37;2.80;;;3.40;99.90;;;;;;4857829;29;20239;-90
2021/01/14 09:19:14;;;;;;;8.27;3.30;;;3.40;99.90;;;;;;4853986;29;20212;-89
2021/01/14 09:21:48;;;;;;;8.77;3.00;;;3.40;99.90;;;;;;4855476;29;20278;-88
2021/01/14 09:24:20;;;;;;;8.23;3.00;;;3.50;99.90;;;;;;4862502;29;20225;-92
2021/01/14 09:26:51;;;;;;;10.00;2.50;;;3.50;99.90;;;;;;4864527;29;20219;-88
2021/01/14 09:29:31;;;;;;;6.23;2.40;;;3.60;99.90;;;;;;4865353;29;20244;-89
2021/01/14 09:32:12;;;;;;;7.93;2.30;;;3.60;99.90;;;;;;4864993;29;20203;-88
2021/01/14 09:34:43;;;;;;;7.60;2.50;;;3.70;99.90;;;;;;4866273;29;20191;-89
2021/01/14 09:37:18;;;;;;;6.17;2.40;;;3.70;99.90;;;;;;4866166;29;20343;-89
2021/01/14 09:39:49;;;;;;;9.33;2.30;;;3.90;99.90;;;;;;4863858;29;20191;-88
2021/01/14 09:42:21;;;;;;;7.27;2.20;;;3.90;99.90;;;;;;4864538;29;20195;-89
2021/01/14 09:44:52;;;;;;;7.93;2.00;;;4.00;99.90;;;;;;4862351;29;20224;-89
2021/01/14 09:47:25;;;;;;;6.63;2.10;;;4.00;99.90;;;;;;4865078;29;20196;-88
2021/01/14 09:49:56;;;;;;;9.60;2.20;;;4.10;99.90;;;;;;4863955;29;20207;-88
2021/01/14 09:52:28;;;;;;;10.17;2.30;;;4.10;99.90;;;;;;4865287;29;20212;-88
2021/01/14 09:55:00;;;;;;;9.00;2.27;;;4.10;99.90;;;;;;4862090;29;20196;-89
2021/01/14 09:57:34;;;;;;;9.93;2.67;;;4.10;99.90;;;;;;4862078;29;20216;-89
2021/01/14 10:00:08;;;;;;;6.37;2.13;;;4.10;99.90;;;;;;4860716;29;20211;-88
2021/01/14 10:02:43;;;;;;;11.73;2.10;;;4.10;99.90;;;;;;4861798;29;20216;-89
2021/01/14 10:05:17;;;;;;;5.03;2.10;;;4.10;99.90;;;;;;4862058;29;20239;-88
2021/01/14 10:08:00;;;;;;;6.97;2.17;;;4.10;99.90;;;;;;4855829;29;20207;-86
2021/01/14 10:10:31;;;;;;;6.47;2.23;;;4.00;99.90;;;;;;4862878;29;20208;-87
2021/01/14 10:13:03;;;;;;;9.47;2.43;;;3.90;99.90;;;;;;4866125;29;20259;-87
2021/01/14 10:15:34;;;;;;;4.73;2.20;;;3.90;99.90;;;;;;4864220;29;20229;-87
2021/01/14 10:18:07;;;;;;;6.90;2.20;;;3.80;99.90;;;;;;4861595;29;20192;-89
2021/01/14 10:20:38;;;;;;;9.83;2.70;;;3.80;99.90;;;;;;4859669;29;20219;-87
2021/01/14 10:23:09;;;;;;;8.53;2.10;;;3.80;99.90;;;;;;4857601;29;20280;-89
2021/01/14 10:25:49;;;;;;;9.00;2.37;;;3.80;99.90;;;;;;4856480;29;20671;-87
2021/01/14 10:28:20;;;;;;;6.10;2.27;;;3.70;99.90;;;;;;4855670;29;20215;-89
2021/01/14 10:30:51;;;;;;;6.70;2.23;;;3.80;99.90;;;;;;4861149;29;20222;-88
2021/01/14 10:33:24;;;;;;;5.47;1.90;;;3.80;99.90;;;;;;4858892;29;20603;-89
2021/01/14 10:35:58;;;;;;;6.13;1.70;;;3.80;99.90;;;;;;4852042;29;20665;-89
2021/01/14 10:38:29;;;;;;;5.57;1.80;;;3.90;99.90;;;;;;4856548;29;20226;-88
2021/01/14 10:41:04;;;;;;;5.60;2.00;;;3.90;99.90;;;;;;4861683;29;20244;-89
2021/01/14 10:43:39;;;;;;;8.43;2.17;;;3.90;99.90;;;;;;4828010;29;20208;-89
2021/01/14 10:46:10;;;;;;;8.87;2.33;;;3.90;99.90;;;;;;4856345;29;20228;-87
2021/01/14 10:48:43;;;;;;;7.03;2.20;;;3.90;99.90;;;;;;4855702;29;20232;-88
2021/01/14 10:51:14;;;;;;;9.50;2.10;;;3.90;99.90;;;;;;4850521;29;20200;-88
2021/01/14 10:53:45;;;;;;;7.57;2.17;;;3.90;99.90;;;;;;4854062;29;20215;-88
2021/01/14 10:56:19;;;;;;;6.43;2.40;;;3.90;99.90;;;;;;4852110;29;20208;-89
2021/01/14 10:58:58;;;;;;;7.40;2.60;;;3.90;99.90;;;;;;4852870;29;20279;-88
2021/01/14 11:01:30;;;;;;;6.57;2.00;;;3.80;99.90;;;;;;4852940;29;20219;-87
2021/01/14 11:04:10;;;;;;;8.73;2.33;;;3.80;99.90;;;;;;4856288;29;20216;-88
2021/01/14 11:06:41;;;;;;;5.43;2.17;;;3.60;99.90;;;;;;4854514;29;20257;-88
2021/01/14 11:09:11;;;;;;;9.00;2.73;;;3.60;99.90;;;;;;4854064;29;20218;-88
2021/01/14 11:11:43;;;;;;;6.93;2.40;;;3.60;99.90;;;;;;4855193;29;20203;-89
2021/01/14 11:14:17;;;;;;;6.10;1.90;;;3.60;99.90;;;;;;4855657;29;20200;-89
2021/01/14 11:16:47;;;;;;;9.87;2.47;;;3.70;99.90;;;;;;4852423;29;20263;-87
2021/01/14 11:19:22;;;;;;;7.07;2.07;;;3.70;99.90;;;;;;4852684;29;20204;-88
2021/01/14 11:21:55;;;;;;;7.73;2.20;;;3.70;99.90;;;;;;4855197;29;20211;-88
2021/01/14 11:24:27;;;;;;;7.03;2.40;;;3.80;99.90;;;;;;4855105;29;20215;-88
2021/01/14 11:26:57;;;;;;;7.37;2.43;;;3.80;99.90;;;;;;4853660;29;20226;-88
2021/01/14 11:29:29;;;;;;;5.30;2.00;;;3.90;99.90;;;;;;4852688;29;20227;-89
2021/01/14 11:32:01;;;;;;;5.50;2.20;;;3.90;99.90;;;;;;4854065;29;20224;-88
2021/01/14 11:34:34;;;;;;;8.53;2.80;;;3.90;99.90;;;;;;4855039;29;20271;-89
2021/01/14 11:37:06;;;;;;;6.23;2.57;;;3.90;99.90;;;;;;4853221;29;20291;-89
2021/01/14 11:39:37;;;;;;;13.37;3.20;;;4.00;99.90;;;;;;4855069;29;20203;-87
2021/01/14 11:42:09;;;;;;;4.40;1.77;;;3.90;99.90;;;;;;4854947;29;20234;-88
2021/01/14 11:47:34;;;;;;;7.03;2.37;;;4.00;99.90;;;;;;4854180;29;20215;-89
2021/01/14 11:52:53;;;;;;;6.73;2.43;;;4.10;99.90;;;;;;4855172;29;20215;-89
2021/01/14 11:55:24;;;;;;;6.90;2.30;;;4.10;99.90;;;;;;4855615;29;20287;-89
2021/01/14 11:57:57;;;;;;;7.17;1.90;;;4.10;99.90;;;;;;4844957;29;20227;-88
2021/01/14 12:00:28;;;;;;;5.67;2.13;;;4.10;99.90;;;;;;4832497;29;20646;-88
2021/01/14 12:03:01;;;;;;;6.30;2.20;;;4.10;99.90;;;;;;4856122;29;20272;-89
2021/01/14 12:05:35;;;;;;;7.83;2.03;;;4.10;99.90;;;;;;4858695;29;20234;-89
2021/01/14 12:08:07;;;;;;;5.43;1.80;;;4.10;99.90;;;;;;4858076;29;20200;-89
2021/01/14 12:10:38;;;;;;;5.43;1.53;;;4.20;99.90;;;;;;4854555;29;20244;-89
2021/01/14 12:13:08;;;;;;;6.97;2.10;;;4.20;99.90;;;;;;4855197;29;20225;-89
2021/01/14 12:15:39;;;;;;;6.07;1.73;;;4.20;99.90;;;;;;4849745;29;20219;-89
2021/01/14 12:18:10;;;;;;;2.70;1.43;;;4.20;99.90;;;;;;4846966;29;20246;-89
2021/01/14 12:20:43;;;;;;;6.07;1.70;;;4.20;99.90;;;;;;4854116;29;20216;-90
2021/01/14 12:23:14;;;;;;;6.60;1.73;;;4.20;99.90;;;;;;4858763;29;20212;-89
2021/01/14 12:25:44;;;;;;;3.27;1.63;;;4.30;99.90;;;;;;4859894;29;20238;-88
2021/01/14 12:28:15;;;;;;;9.27;1.77;;;4.30;99.90;;;;;;4863455;29;20216;-89
2021/01/14 12:30:47;;;;;;;5.00;1.63;;;4.30;99.90;;;;;;4867066;29;20204;-89
2021/01/14 12:33:17;;;;;;;6.80;1.50;;;4.40;99.90;;;;;;4866495;29;20208;-90
2021/01/14 12:35:51;;;;;;;6.43;2.03;;;4.40;99.90;;;;;;4863978;29;20219;-88
2021/01/14 12:38:22;;;;;;;3.53;1.50;;;4.40;99.90;;;;;;4862701;29;20252;-87
2021/01/14 12:40:52;;;;;;;4.70;1.50;;;4.50;99.90;;;;;;4858089;29;20224;-89
2021/01/14 12:43:23;;;;;;;3.37;1.37;;;4.50;99.90;;;;;;4859002;29;20218;-88
2021/01/14 12:45:54;;;;;;;5.87;1.70;;;4.60;99.90;;;;;;4857068;29;20268;-89
2021/01/14 12:48:25;;;;;;;4.07;1.37;;;4.60;99.90;;;;;;4857627;29;20224;-88
2021/01/14 12:50:57;;;;;;;5.40;1.60;;;4.60;99.90;;;;;;4851016;29;20642;-89
2021/01/14 12:53:28;;;;;;;5.03;1.50;;;4.60;99.90;;;;;;4851558;29;20212;-87
2021/01/14 12:55:59;;;;;;;5.47;1.30;;;4.60;99.90;;;;;;4857276;29;20671;-89
2021/01/14 12:58:33;;;;;;;4.77;1.57;;;4.70;99.90;;;;;;4859673;29;20249;-88
2021/01/14 13:01:04;;;;;;;6.40;1.67;;;4.70;99.90;;;;;;4858273;29;20700;-89
2021/01/14 13:03:52;;;;;;;2.67;1.70;;;4.70;99.90;;;;;;4858680;29;20235;-89
2021/01/14 13:06:31;;;;;;;4.00;1.77;;;4.70;99.90;;;;;;4857033;29;20737;-89
2021/01/14 13:09:04;;;;;;;5.07;1.73;;;4.70;99.90;;;;;;4855599;29;20316;-89
2021/01/14 13:11:41;;;;;;;5.00;1.70;;;4.70;99.90;;;;;;4847933;29;20223;-89
2021/01/14 13:14:11;;;;;;;3.30;1.50;;;4.70;99.90;;;;;;4858275;29;20253;-89
2021/01/14 13:16:43;;;;;;;5.27;1.60;;;4.70;99.90;;;;;;4858376;29;20212;-89
2021/01/14 13:19:17;;;;;;;7.03;1.43;;;4.60;99.90;;;;;;4857532;29;20256;-89
2021/01/14 13:21:50;;;;;;;5.73;1.30;;;4.60;99.90;;;;;;4856849;29;20226;-89
2021/01/14 13:24:22;;;;;;;5.77;1.50;;;4.60;99.90;;;;;;4856939;29;20292;-88
2021/01/14 13:26:59;;;;;;;6.37;1.50;;;4.60;99.90;;;;;;4849148;29;20742;-89
2021/01/14 13:29:30;;;;;;;4.13;1.60;;;4.60;99.90;;;;;;4854800;29;20219;-88
2021/01/14 13:32:01;;;;;;;4.83;1.47;;;4.60;99.90;;;;;;4856179;29;20219;-89
2021/01/14 13:34:32;;;;;;;4.90;1.53;;;4.60;99.90;;;;;;4856931;29;20233;-88
2021/01/14 13:37:06;;;;;;;5.63;1.60;;;4.60;99.90;;;;;;4856152;29;20249;-89
2021/01/14 13:39:43;;;;;;;3.73;1.27;;;4.60;99.90;;;;;;4856338;29;20208;-89
2021/01/14 13:42:15;;;;;;;3.83;1.30;;;4.60;99.90;;;;;;4857215;29;20232;-89
2021/01/14 13:44:45;;;;;;;3.97;1.30;;;4.70;99.90;;;;;;4855402;29;20223;-89
2021/01/14 13:47:15;;;;;;;2.87;1.10;;;4.70;99.90;;;;;;4852731;29;20239;-88
2021/01/14 13:49:47;;;;;;;3.80;1.33;;;4.70;99.90;;;;;;4855694;29;20279;-88
2021/01/14 13:52:20;;;;;;;3.80;1.40;;;4.70;99.90;;;;;;4856942;29;20550;-89
2021/01/14 13:54:51;;;;;;;5.50;1.23;;;4.70;99.90;;;;;;4855041;29;20235;-89
2021/01/14 13:57:22;;;;;;;3.37;1.20;;;4.60;99.90;;;;;;4856196;29;20336;-88
2021/01/14 13:59:52;;;;;;;2.27;1.23;;;4.60;99.90;;;;;;4854303;29;20307;-88
2021/01/14 14:02:26;;;;;;;3.40;1.30;;;4.60;99.90;;;;;;4853472;29;20203;-89
2021/01/14 14:04:58;;;;;;;3.30;1.37;;;4.60;99.90;;;;;;4854775;29;20223;-90
2021/01/14 14:07:30;;;;;;;6.07;1.50;;;4.50;99.90;;;;;;4855547;29;20236;-88
2021/01/14 14:10:02;;;;;;;3.63;1.57;;;4.50;99.90;;;;;;4856648;29;20214;-88
2021/01/14 14:12:34;;;;;;;4.27;1.47;;;4.40;99.90;;;;;;4857035;29;20207;-89
2021/01/14 14:15:05;;;;;;;4.23;1.53;;;4.40;99.90;;;;;;4854290;29;20216;-89
2021/01/14 14:17:35;;;;;;;3.43;1.10;;;4.40;99.90;;;;;;4854141;29;20223;-89
2021/01/14 14:20:07;;;;;;;1.60;1.10;;;4.30;99.90;;;;;;4857040;29;20234;-89
2021/01/14 14:22:39;;;;;;;6.03;1.23;;;4.30;99.90;;;;;;4851762;29;20219;-89
2021/01/14 14:25:10;;;;;;;3.97;1.17;;;4.30;99.90;;;;;;4856575;29;20211;-89
2021/01/14 14:27:41;;;;;;;3.93;1.00;;;4.30;99.90;;;;;;4853528;29;20681;-89
2021/01/14 14:30:13;;;;;;;2.30;1.20;;;4.30;99.90;;;;;;4856972;29;20204;-88
2021/01/14 14:32:45;;;;;;;3.63;1.13;;;4.30;99.90;;;;;;4856099;29;20207;-88
2021/01/14 14:35:16;;;;;;;3.03;1.07;;;4.30;99.90;;;;;;4857681;29;20208;-89
2021/01/14 14:37:49;;;;;;;2.03;1.10;;;4.30;99.90;;;;;;4854627;29;20211;-88
2021/01/14 14:40:20;;;;;;;3.57;0.90;;;4.40;99.90;;;;;;4856229;29;20211;-88
2021/01/14 14:42:51;;;;;;;6.87;1.40;;;4.40;99.90;;;;;;4856508;29;20696;-88
2021/01/14 14:45:22;;;;;;;4.50;1.37;;;4.40;99.90;;;;;;4856579;29;20617;-89
2021/01/14 14:47:54;;;;;;;4.80;1.30;;;4.40;99.90;;;;;;4857025;29;20251;-89
2021/01/14 14:50:24;;;;;;;3.63;1.30;;;4.50;99.90;;;;;;4863695;29;20196;-89
2021/01/14 14:53:02;;;;;;;1.53;0.63;;;4.50;99.90;;;;;;4868867;29;20199;-89
2021/01/14 14:55:38;;;;;;;3.13;1.30;;;4.50;99.90;;;;;;4861135;29;20203;-89
2021/01/14 14:58:09;;;;;;;1.77;1.07;;;4.50;99.90;;;;;;4856544;29;20260;-89
2021/01/14 15:00:43;;;;;;;3.63;1.07;;;4.50;99.90;;;;;;4855616;29;20208;-88
2021/01/14 15:03:15;;;;;;;5.00;1.30;;;4.50;99.90;;;;;;4856241;29;20208;-89
2021/01/14 15:05:47;;;;;;;3.47;1.13;;;4.50;99.90;;;;;;4856064;29;20361;-87
2021/01/14 15:08:20;;;;;;;4.50;1.10;;;4.50;99.90;;;;;;4849939;29;20199;-89
2021/01/14 15:10:54;;;;;;;3.23;1.00;;;4.50;99.90;;;;;;4856789;29;20211;-88
2021/01/14 15:13:29;;;;;;;4.53;1.47;;;4.50;99.90;;;;;;4855387;29;20203;-89
2021/01/14 15:16:05;;;;;;;4.23;1.13;;;4.40;99.90;;;;;;4857240;29;20215;-88
2021/01/14 15:18:58;;;;;;;4.70;0.93;;;4.40;99.90;;;;;;4860383;29;20192;-90